sensor_id;sensor_type;location;lat;lon;timestamp;P1;durP1;ratioP1;P2;durP2;ratioP2
35993;SDS011;22066;54.274;18.578;2023-05-14T00:02:21;12.48;;;6.38;;
35993;SDS011;22066;54.274;18.578;2023-05-14T00:04:47;11.02;;;6.45;;
35993;SDS011;22066;54.274;18.578;2023-05-14T00:07:13;12.02;;;5.93;;
35993;SDS011;22066;54.274;18.578;2023-05-14T00:09:40;11.05;;;5.97;;
35993;SDS011;22066;54.274;18.578;2023-05-14T00:12:06;11.48;;;5.95;;
35993;SDS011;22066;54.274;18.578;2023-05-14T00:14:33;10.18;;;6.00;;
35993;SDS011;22066;54.274;18.578;2023-05-14T00:16:59;15.07;;;7.05;;
35993;SDS011;22066;54.274;18.578;2023-05-14T00:19:25;14.25;;;6.10;;
35993;SDS011;22066;54.274;18.578;2023-05-14T00:21:51;11.20;;;5.78;;
35993;SDS011;22066;54.274;18.578;2023-05-14T00:24:17;13.02;;;6.32;;
35993;SDS011;22066;54.274;18.578;2023-05-14T00:26:43;11.10;;;6.53;;
35993;SDS011;22066;54.274;18.578;2023-05-14T00:29:09;11.73;;;6.40;;
35993;SDS011;22066;54.274;18.578;2023-05-14T00:31:35;18.10;;;6.95;;
35993;SDS011;22066;54.274;18.578;2023-05-14T00:34:01;13.68;;;6.40;;
35993;SDS011;22066;54.274;18.578;2023-05-14T00:36:27;14.02;;;6.50;;
35993;SDS011;22066;54.274;18.578;2023-05-14T00:38:53;9.80;;;5.57;;
35993;SDS011;22066;54.274;18.578;2023-05-14T00:41:21;11.20;;;6.53;;
35993;SDS011;22066;54.274;18.578;2023-05-14T00:43:47;7.22;;;5.18;;
35993;SDS011;22066;54.274;18.578;2023-05-14T00:46:13;10.57;;;6.82;;
35993;SDS011;22066;54.274;18.578;2023-05-14T00:48:40;18.77;;;6.70;;
35993;SDS011;22066;54.274;18.578;2023-05-14T00:51:06;12.60;;;6.10;;
35993;SDS011;22066;54.274;18.578;2023-05-14T00:53:32;11.95;;;5.72;;
35993;SDS011;22066;54.274;18.578;2023-05-14T00:55:59;10.02;;;6.10;;
35993;SDS011;22066;54.274;18.578;2023-05-14T00:58:25;11.20;;;6.47;;
35993;SDS011;22066;54.274;18.578;2023-05-14T01:00:51;11.80;;;5.85;;
35993;SDS011;22066;54.274;18.578;2023-05-14T01:03:17;12.65;;;6.22;;
35993;SDS011;22066;54.274;18.578;2023-05-14T01:05:51;10.32;;;5.63;;
35993;SDS011;22066;54.274;18.578;2023-05-14T01:08:26;10.32;;;6.10;;
35993;SDS011;22066;54.274;18.578;2023-05-14T01:11:00;11.15;;;6.53;;
35993;SDS011;22066;54.274;18.578;2023-05-14T01:16:25;12.20;;;6.68;;
35993;SDS011;22066;54.274;18.578;2023-05-14T01:18:52;13.68;;;7.43;;
35993;SDS011;22066;54.274;18.578;2023-05-14T01:21:32;10.90;;;6.32;;
35993;SDS011;22066;54.274;18.578;2023-05-14T01:23:59;11.70;;;6.30;;
35993;SDS011;22066;54.274;18.578;2023-05-14T01:26:25;13.02;;;6.47;;
35993;SDS011;22066;54.274;18.578;2023-05-14T01:28:51;15.15;;;6.85;;
35993;SDS011;22066;54.274;18.578;2023-05-14T01:31:18;12.63;;;6.80;;
35993;SDS011;22066;54.274;18.578;2023-05-14T01:33:49;14.65;;;6.72;;
35993;SDS011;22066;54.274;18.578;2023-05-14T01:36:15;16.20;;;7.15;;
35993;SDS011;22066;54.274;18.578;2023-05-14T01:38:41;10.00;;;6.88;;
35993;SDS011;22066;54.274;18.578;2023-05-14T01:41:10;10.98;;;6.00;;
35993;SDS011;22066;54.274;18.578;2023-05-14T01:43:36;13.55;;;6.90;;
35993;SDS011;22066;54.274;18.578;2023-05-14T01:46:02;19.40;;;7.07;;
35993;SDS011;22066;54.274;18.578;2023-05-14T01:48:28;11.00;;;6.50;;
35993;SDS011;22066;54.274;18.578;2023-05-14T01:50:54;12.00;;;6.72;;
35993;SDS011;22066;54.274;18.578;2023-05-14T01:53:20;14.50;;;6.65;;
35993;SDS011;22066;54.274;18.578;2023-05-14T01:55:46;12.18;;;7.05;;
35993;SDS011;22066;54.274;18.578;2023-05-14T01:58:13;13.23;;;6.88;;
35993;SDS011;22066;54.274;18.578;2023-05-14T02:00:39;11.77;;;6.57;;
35993;SDS011;22066;54.274;18.578;2023-05-14T02:03:05;11.07;;;6.15;;
35993;SDS011;22066;54.274;18.578;2023-05-14T02:05:31;11.63;;;6.03;;
35993;SDS011;22066;54.274;18.578;2023-05-14T02:07:57;10.38;;;6.93;;
35993;SDS011;22066;54.274;18.578;2023-05-14T02:10:23;15.23;;;6.53;;
35993;SDS011;22066;54.274;18.578;2023-05-14T02:12:49;12.80;;;7.22;;
35993;SDS011;22066;54.274;18.578;2023-05-14T02:15:15;11.77;;;6.30;;
35993;SDS011;22066;54.274;18.578;2023-05-14T02:17:41;16.20;;;7.38;;
35993;SDS011;22066;54.274;18.578;2023-05-14T02:20:07;11.55;;;6.65;;
35993;SDS011;22066;54.274;18.578;2023-05-14T02:22:34;9.95;;;6.10;;
35993;SDS011;22066;54.274;18.578;2023-05-14T02:25:00;10.15;;;6.60;;
35993;SDS011;22066;54.274;18.578;2023-05-14T02:27:26;11.05;;;6.65;;
35993;SDS011;22066;54.274;18.578;2023-05-14T02:29:52;11.20;;;6.47;;
35993;SDS011;22066;54.274;18.578;2023-05-14T02:32:20;10.30;;;6.50;;
35993;SDS011;22066;54.274;18.578;2023-05-14T02:34:46;11.80;;;6.65;;
35993;SDS011;22066;54.274;18.578;2023-05-14T02:37:12;13.32;;;6.43;;
35993;SDS011;22066;54.274;18.578;2023-05-14T02:39:38;15.77;;;6.13;;
35993;SDS011;22066;54.274;18.578;2023-05-14T02:42:04;12.05;;;6.35;;
35993;SDS011;22066;54.274;18.578;2023-05-14T02:44:30;11.65;;;6.63;;
35993;SDS011;22066;54.274;18.578;2023-05-14T02:46:57;10.90;;;5.90;;
35993;SDS011;22066;54.274;18.578;2023-05-14T02:49:23;12.40;;;6.32;;
35993;SDS011;22066;54.274;18.578;2023-05-14T02:51:49;11.32;;;7.05;;
35993;SDS011;22066;54.274;18.578;2023-05-14T02:54:15;10.23;;;6.45;;
35993;SDS011;22066;54.274;18.578;2023-05-14T02:56:41;17.13;;;7.25;;
35993;SDS011;22066;54.274;18.578;2023-05-14T02:59:07;18.73;;;7.18;;
35993;SDS011;22066;54.274;18.578;2023-05-14T03:01:33;11.95;;;6.70;;
35993;SDS011;22066;54.274;18.578;2023-05-14T03:03:59;11.43;;;7.00;;
35993;SDS011;22066;54.274;18.578;2023-05-14T03:06:25;11.48;;;6.90;;
35993;SDS011;22066;54.274;18.578;2023-05-14T03:08:51;16.80;;;7.47;;
35993;SDS011;22066;54.274;18.578;2023-05-14T03:11:17;14.00;;;6.65;;
35993;SDS011;22066;54.274;18.578;2023-05-14T03:13:43;10.23;;;6.90;;
35993;SDS011;22066;54.274;18.578;2023-05-14T03:16:09;13.65;;;7.18;;
35993;SDS011;22066;54.274;18.578;2023-05-14T03:18:35;11.98;;;5.85;;
35993;SDS011;22066;54.274;18.578;2023-05-14T03:21:01;13.27;;;6.93;;
35993;SDS011;22066;54.274;18.578;2023-05-14T03:23:27;10.48;;;6.63;;
35993;SDS011;22066;54.274;18.578;2023-05-14T03:25:56;12.07;;;6.55;;
35993;SDS011;22066;54.274;18.578;2023-05-14T03:28:22;11.82;;;6.47;;
35993;SDS011;22066;54.274;18.578;2023-05-14T03:30:48;10.98;;;6.35;;
35993;SDS011;22066;54.274;18.578;2023-05-14T03:33:14;9.82;;;6.35;;
35993;SDS011;22066;54.274;18.578;2023-05-14T03:35:40;13.07;;;7.90;;
35993;SDS011;22066;54.274;18.578;2023-05-14T03:38:06;13.70;;;7.55;;
35993;SDS011;22066;54.274;18.578;2023-05-14T03:40:32;24.25;;;7.95;;
35993;SDS011;22066;54.274;18.578;2023-05-14T03:42:58;11.80;;;6.72;;
35993;SDS011;22066;54.274;18.578;2023-05-14T03:45:24;14.30;;;6.47;;
35993;SDS011;22066;54.274;18.578;2023-05-14T03:47:52;10.02;;;6.32;;
35993;SDS011;22066;54.274;18.578;2023-05-14T03:50:18;13.20;;;7.15;;
35993;SDS011;22066;54.274;18.578;2023-05-14T03:52:44;12.35;;;6.95;;
35993;SDS011;22066;54.274;18.578;2023-05-14T03:55:10;11.63;;;6.65;;
35993;SDS011;22066;54.274;18.578;2023-05-14T03:57:36;10.95;;;6.38;;
35993;SDS011;22066;54.274;18.578;2023-05-14T04:00:03;12.55;;;7.53;;
35993;SDS011;22066;54.274;18.578;2023-05-14T04:02:29;11.70;;;6.80;;
35993;SDS011;22066;54.274;18.578;2023-05-14T04:04:55;12.02;;;7.22;;
35993;SDS011;22066;54.274;18.578;2023-05-14T04:07:21;12.15;;;7.13;;
35993;SDS011;22066;54.274;18.578;2023-05-14T04:09:47;14.07;;;6.55;;
35993;SDS011;22066;54.274;18.578;2023-05-14T04:12:13;14.90;;;6.53;;
35993;SDS011;22066;54.274;18.578;2023-05-14T04:14:39;17.15;;;7.68;;
35993;SDS011;22066;54.274;18.578;2023-05-14T04:17:05;12.18;;;6.47;;
35993;SDS011;22066;54.274;18.578;2023-05-14T04:19:31;11.32;;;6.63;;
35993;SDS011;22066;54.274;18.578;2023-05-14T04:21:57;10.70;;;7.38;;
35993;SDS011;22066;54.274;18.578;2023-05-14T04:24:23;12.23;;;7.57;;
35993;SDS011;22066;54.274;18.578;2023-05-14T04:26:49;13.52;;;6.65;;
35993;SDS011;22066;54.274;18.578;2023-05-14T04:29:15;19.70;;;6.57;;
35993;SDS011;22066;54.274;18.578;2023-05-14T04:31:41;12.82;;;7.35;;
35993;SDS011;22066;54.274;18.578;2023-05-14T04:34:07;15.32;;;7.70;;
35993;SDS011;22066;54.274;18.578;2023-05-14T04:36:34;10.00;;;6.28;;
35993;SDS011;22066;54.274;18.578;2023-05-14T04:39:00;9.55;;;6.07;;
35993;SDS011;22066;54.274;18.578;2023-05-14T04:41:26;11.25;;;7.05;;
35993;SDS011;22066;54.274;18.578;2023-05-14T04:43:54;11.45;;;6.68;;
35993;SDS011;22066;54.274;18.578;2023-05-14T04:46:20;10.85;;;6.65;;
35993;SDS011;22066;54.274;18.578;2023-05-14T04:48:46;13.88;;;7.25;;
35993;SDS011;22066;54.274;18.578;2023-05-14T04:51:12;11.13;;;6.57;;
35993;SDS011;22066;54.274;18.578;2023-05-14T04:53:38;11.82;;;6.22;;
35993;SDS011;22066;54.274;18.578;2023-05-14T04:56:05;12.82;;;7.25;;
35993;SDS011;22066;54.274;18.578;2023-05-14T04:58:31;12.70;;;6.70;;
35993;SDS011;22066;54.274;18.578;2023-05-14T05:00:58;10.27;;;6.68;;
35993;SDS011;22066;54.274;18.578;2023-05-14T05:03:24;13.77;;;7.22;;
35993;SDS011;22066;54.274;18.578;2023-05-14T05:05:50;11.85;;;6.78;;
35993;SDS011;22066;54.274;18.578;2023-05-14T05:08:16;12.15;;;7.30;;
35993;SDS011;22066;54.274;18.578;2023-05-14T05:10:42;12.30;;;7.10;;
35993;SDS011;22066;54.274;18.578;2023-05-14T05:13:08;12.82;;;7.57;;
35993;SDS011;22066;54.274;18.578;2023-05-14T05:15:34;13.45;;;6.78;;
35993;SDS011;22066;54.274;18.578;2023-05-14T05:18:00;15.40;;;6.50;;
35993;SDS011;22066;54.274;18.578;2023-05-14T05:20:27;13.88;;;6.78;;
35993;SDS011;22066;54.274;18.578;2023-05-14T05:22:53;10.95;;;6.70;;
35993;SDS011;22066;54.274;18.578;2023-05-14T05:25:19;11.93;;;6.78;;
35993;SDS011;22066;54.274;18.578;2023-05-14T05:27:45;10.77;;;6.10;;
35993;SDS011;22066;54.274;18.578;2023-05-14T05:30:11;11.05;;;6.10;;
35993;SDS011;22066;54.274;18.578;2023-05-14T05:32:37;12.55;;;7.25;;
35993;SDS011;22066;54.274;18.578;2023-05-14T05:35:03;17.92;;;8.38;;
35993;SDS011;22066;54.274;18.578;2023-05-14T05:37:29;20.48;;;8.60;;
35993;SDS011;22066;54.274;18.578;2023-05-14T05:39:55;14.88;;;7.30;;
35993;SDS011;22066;54.274;18.578;2023-05-14T05:42:21;11.68;;;7.05;;
35993;SDS011;22066;54.274;18.578;2023-05-14T05:44:47;10.82;;;6.35;;
35993;SDS011;22066;54.274;18.578;2023-05-14T05:47:13;13.65;;;5.85;;
35993;SDS011;22066;54.274;18.578;2023-05-14T05:49:41;13.30;;;6.77;;
35993;SDS011;22066;54.274;18.578;2023-05-14T05:52:07;13.57;;;6.07;;
35993;SDS011;22066;54.274;18.578;2023-05-14T05:54:33;12.48;;;7.55;;
35993;SDS011;22066;54.274;18.578;2023-05-14T05:56:59;11.15;;;6.18;;
35993;SDS011;22066;54.274;18.578;2023-05-14T05:59:25;12.50;;;6.60;;
35993;SDS011;22066;54.274;18.578;2023-05-14T06:01:51;12.60;;;6.32;;
35993;SDS011;22066;54.274;18.578;2023-05-14T06:04:17;12.68;;;6.72;;
35993;SDS011;22066;54.274;18.578;2023-05-14T06:06:44;11.80;;;6.13;;
35993;SDS011;22066;54.274;18.578;2023-05-14T06:09:10;11.52;;;6.32;;
35993;SDS011;22066;54.274;18.578;2023-05-14T06:11:36;15.00;;;6.97;;
35993;SDS011;22066;54.274;18.578;2023-05-14T06:14:02;11.57;;;6.13;;
35993;SDS011;22066;54.274;18.578;2023-05-14T06:16:28;10.55;;;5.68;;
35993;SDS011;22066;54.274;18.578;2023-05-14T06:18:54;11.35;;;5.88;;
35993;SDS011;22066;54.274;18.578;2023-05-14T06:21:20;11.88;;;5.88;;
35993;SDS011;22066;54.274;18.578;2023-05-14T06:23:47;10.30;;;6.20;;
35993;SDS011;22066;54.274;18.578;2023-05-14T06:26:13;12.52;;;5.80;;
35993;SDS011;22066;54.274;18.578;2023-05-14T06:28:39;9.50;;;6.45;;
35993;SDS011;22066;54.274;18.578;2023-05-14T06:31:05;9.02;;;5.20;;
35993;SDS011;22066;54.274;18.578;2023-05-14T06:33:31;11.07;;;5.78;;
35993;SDS011;22066;54.274;18.578;2023-05-14T06:35:57;11.18;;;5.40;;
35993;SDS011;22066;54.274;18.578;2023-05-14T06:38:23;10.02;;;5.65;;
35993;SDS011;22066;54.274;18.578;2023-05-14T06:40:49;8.90;;;5.40;;
35993;SDS011;22066;54.274;18.578;2023-05-14T06:43:17;10.45;;;5.00;;
35993;SDS011;22066;54.274;18.578;2023-05-14T06:45:43;9.82;;;5.60;;
35993;SDS011;22066;54.274;18.578;2023-05-14T06:48:09;9.45;;;5.47;;
35993;SDS011;22066;54.274;18.578;2023-05-14T06:50:35;8.18;;;5.30;;
35993;SDS011;22066;54.274;18.578;2023-05-14T06:53:01;11.48;;;5.47;;
35993;SDS011;22066;54.274;18.578;2023-05-14T06:55:27;14.75;;;5.80;;
35993;SDS011;22066;54.274;18.578;2023-05-14T06:57:53;11.23;;;5.22;;
35993;SDS011;22066;54.274;18.578;2023-05-14T07:00:19;19.10;;;6.40;;
35993;SDS011;22066;54.274;18.578;2023-05-14T07:02:45;10.32;;;4.97;;
35993;SDS011;22066;54.274;18.578;2023-05-14T07:05:11;9.23;;;5.63;;
35993;SDS011;22066;54.274;18.578;2023-05-14T07:07:37;12.05;;;5.55;;
35993;SDS011;22066;54.274;18.578;2023-05-14T07:10:04;8.02;;;5.18;;
35993;SDS011;22066;54.274;18.578;2023-05-14T07:12:30;9.13;;;4.90;;
35993;SDS011;22066;54.274;18.578;2023-05-14T07:14:56;8.52;;;4.95;;
35993;SDS011;22066;54.274;18.578;2023-05-14T07:17:22;10.93;;;5.30;;
35993;SDS011;22066;54.274;18.578;2023-05-14T07:19:48;10.20;;;5.15;;
35993;SDS011;22066;54.274;18.578;2023-05-14T07:22:15;10.68;;;4.95;;
35993;SDS011;22066;54.274;18.578;2023-05-14T07:24:41;12.20;;;5.68;;
35993;SDS011;22066;54.274;18.578;2023-05-14T07:27:07;8.35;;;5.05;;
35993;SDS011;22066;54.274;18.578;2023-05-14T07:29:33;13.82;;;5.25;;
35993;SDS011;22066;54.274;18.578;2023-05-14T07:32:00;6.78;;;4.30;;
35993;SDS011;22066;54.274;18.578;2023-05-14T07:34:26;10.73;;;5.25;;
35993;SDS011;22066;54.274;18.578;2023-05-14T07:36:52;9.55;;;5.25;;
35993;SDS011;22066;54.274;18.578;2023-05-14T07:39:18;11.25;;;4.70;;
35993;SDS011;22066;54.274;18.578;2023-05-14T07:41:44;7.80;;;4.65;;
35993;SDS011;22066;54.274;18.578;2023-05-14T07:44:10;12.88;;;5.00;;
35993;SDS011;22066;54.274;18.578;2023-05-14T07:46:36;8.00;;;5.25;;
35993;SDS011;22066;54.274;18.578;2023-05-14T07:49:02;8.25;;;5.05;;
35993;SDS011;22066;54.274;18.578;2023-05-14T07:51:28;12.38;;;5.00;;
35993;SDS011;22066;54.274;18.578;2023-05-14T07:53:55;8.90;;;4.70;;
35993;SDS011;22066;54.274;18.578;2023-05-14T07:56:21;6.60;;;4.25;;
35993;SDS011;22066;54.274;18.578;2023-05-14T07:58:47;8.88;;;4.78;;
35993;SDS011;22066;54.274;18.578;2023-05-14T08:01:13;8.52;;;4.55;;
35993;SDS011;22066;54.274;18.578;2023-05-14T08:03:40;9.50;;;4.53;;
35993;SDS011;22066;54.274;18.578;2023-05-14T08:06:06;7.32;;;4.00;;
35993;SDS011;22066;54.274;18.578;2023-05-14T08:08:32;7.70;;;4.15;;
35993;SDS011;22066;54.274;18.578;2023-05-14T08:10:58;8.70;;;4.40;;
35993;SDS011;22066;54.274;18.578;2023-05-14T08:13:24;9.23;;;4.40;;
35993;SDS011;22066;54.274;18.578;2023-05-14T08:15:50;7.57;;;3.83;;
35993;SDS011;22066;54.274;18.578;2023-05-14T08:18:16;8.07;;;4.40;;
35993;SDS011;22066;54.274;18.578;2023-05-14T08:20:42;9.35;;;4.70;;
35993;SDS011;22066;54.274;18.578;2023-05-14T08:23:08;10.73;;;4.53;;
35993;SDS011;22066;54.274;18.578;2023-05-14T08:25:35;12.45;;;4.63;;
35993;SDS011;22066;54.274;18.578;2023-05-14T08:28:01;9.98;;;4.80;;
35993;SDS011;22066;54.274;18.578;2023-05-14T08:30:27;9.40;;;4.05;;
35993;SDS011;22066;54.274;18.578;2023-05-14T08:32:53;8.43;;;4.63;;
35993;SDS011;22066;54.274;18.578;2023-05-14T08:35:19;6.07;;;3.55;;
35993;SDS011;22066;54.274;18.578;2023-05-14T08:37:45;9.35;;;3.90;;
35993;SDS011;22066;54.274;18.578;2023-05-14T08:40:15;6.20;;;4.03;;
35993;SDS011;22066;54.274;18.578;2023-05-14T08:42:41;14.70;;;4.35;;
35993;SDS011;22066;54.274;18.578;2023-05-14T08:47:35;7.88;;;4.78;;
35993;SDS011;22066;54.274;18.578;2023-05-14T08:52:31;10.98;;;4.45;;
35993;SDS011;22066;54.274;18.578;2023-05-14T08:55:01;14.27;;;4.80;;
35993;SDS011;22066;54.274;18.578;2023-05-14T08:57:29;5.30;;;3.50;;
35993;SDS011;22066;54.274;18.578;2023-05-14T08:59:55;5.75;;;3.92;;
35993;SDS011;22066;54.274;18.578;2023-05-14T09:02:26;9.82;;;4.30;;
35993;SDS011;22066;54.274;18.578;2023-05-14T09:04:54;12.85;;;3.75;;
35993;SDS011;22066;54.274;18.578;2023-05-14T09:07:20;6.40;;;3.63;;
35993;SDS011;22066;54.274;18.578;2023-05-14T09:09:46;11.55;;;4.18;;
35993;SDS011;22066;54.274;18.578;2023-05-14T09:12:12;7.82;;;3.70;;
35993;SDS011;22066;54.274;18.578;2023-05-14T09:14:38;7.85;;;3.35;;
35993;SDS011;22066;54.274;18.578;2023-05-14T09:17:05;7.22;;;3.45;;
35993;SDS011;22066;54.274;18.578;2023-05-14T09:19:31;8.70;;;3.63;;
35993;SDS011;22066;54.274;18.578;2023-05-14T09:21:57;5.05;;;3.30;;
35993;SDS011;22066;54.274;18.578;2023-05-14T09:24:24;8.50;;;3.38;;
35993;SDS011;22066;54.274;18.578;2023-05-14T09:29:16;6.57;;;3.88;;
35993;SDS011;22066;54.274;18.578;2023-05-14T09:31:42;6.53;;;3.47;;
35993;SDS011;22066;54.274;18.578;2023-05-14T09:34:08;6.10;;;2.92;;
35993;SDS011;22066;54.274;18.578;2023-05-14T09:36:35;6.28;;;3.30;;
35993;SDS011;22066;54.274;18.578;2023-05-14T09:39:04;10.73;;;3.25;;
35993;SDS011;22066;54.274;18.578;2023-05-14T09:41:30;6.97;;;3.85;;
35993;SDS011;22066;54.274;18.578;2023-05-14T09:43:56;5.28;;;3.10;;
35993;SDS011;22066;54.274;18.578;2023-05-14T09:46:22;6.10;;;3.07;;
35993;SDS011;22066;54.274;18.578;2023-05-14T09:48:54;5.07;;;3.65;;
35993;SDS011;22066;54.274;18.578;2023-05-14T09:51:20;5.47;;;3.17;;
35993;SDS011;22066;54.274;18.578;2023-05-14T09:53:46;6.70;;;3.08;;
35993;SDS011;22066;54.274;18.578;2023-05-14T09:56:13;6.10;;;3.55;;
35993;SDS011;22066;54.274;18.578;2023-05-14T09:58:39;5.27;;;2.83;;
35993;SDS011;22066;54.274;18.578;2023-05-14T10:01:05;11.10;;;3.42;;
35993;SDS011;22066;54.274;18.578;2023-05-14T10:03:31;9.60;;;3.27;;
35993;SDS011;22066;54.274;18.578;2023-05-14T10:05:59;6.20;;;3.53;;
35993;SDS011;22066;54.274;18.578;2023-05-14T10:08:26;7.00;;;3.63;;
35993;SDS011;22066;54.274;18.578;2023-05-14T10:10:53;5.40;;;3.05;;
35993;SDS011;22066;54.274;18.578;2023-05-14T10:13:21;8.90;;;3.33;;
35993;SDS011;22066;54.274;18.578;2023-05-14T10:15:48;6.80;;;3.20;;
35993;SDS011;22066;54.274;18.578;2023-05-14T10:18:18;6.90;;;3.03;;
35993;SDS011;22066;54.274;18.578;2023-05-14T10:20:47;8.43;;;3.78;;
35993;SDS011;22066;54.274;18.578;2023-05-14T10:23:18;8.50;;;3.28;;
35993;SDS011;22066;54.274;18.578;2023-05-14T10:25:44;10.20;;;3.03;;
35993;SDS011;22066;54.274;18.578;2023-05-14T10:28:10;5.65;;;3.05;;
35993;SDS011;22066;54.274;18.578;2023-05-14T10:30:43;12.73;;;3.00;;
35993;SDS011;22066;54.274;18.578;2023-05-14T10:33:13;10.07;;;3.30;;
35993;SDS011;22066;54.274;18.578;2023-05-14T10:38:07;6.97;;;3.03;;
35993;SDS011;22066;54.274;18.578;2023-05-14T10:40:33;6.18;;;3.28;;
35993;SDS011;22066;54.274;18.578;2023-05-14T10:42:59;6.32;;;3.17;;
35993;SDS011;22066;54.274;18.578;2023-05-14T10:45:25;9.95;;;3.78;;
35993;SDS011;22066;54.274;18.578;2023-05-14T10:47:51;5.17;;;3.37;;
35993;SDS011;22066;54.274;18.578;2023-05-14T10:50:17;6.22;;;2.88;;
35993;SDS011;22066;54.274;18.578;2023-05-14T10:52:44;4.45;;;2.65;;
35993;SDS011;22066;54.274;18.578;2023-05-14T10:55:13;5.22;;;2.75;;
35993;SDS011;22066;54.274;18.578;2023-05-14T10:57:41;5.72;;;2.70;;
35993;SDS011;22066;54.274;18.578;2023-05-14T11:02:35;10.38;;;3.78;;
35993;SDS011;22066;54.274;18.578;2023-05-14T11:07:32;10.60;;;3.97;;
35993;SDS011;22066;54.274;18.578;2023-05-14T11:10:05;8.35;;;4.53;;
35993;SDS011;22066;54.274;18.578;2023-05-14T11:12:32;10.32;;;4.72;;
35993;SDS011;22066;54.274;18.578;2023-05-14T11:14:59;7.97;;;4.07;;
35993;SDS011;22066;54.274;18.578;2023-05-14T11:17:26;5.82;;;2.40;;
35993;SDS011;22066;54.274;18.578;2023-05-14T11:19:53;12.90;;;4.60;;
35993;SDS011;22066;54.274;18.578;2023-05-14T11:22:19;8.27;;;4.45;;
35993;SDS011;22066;54.274;18.578;2023-05-14T11:24:45;9.30;;;5.00;;
35993;SDS011;22066;54.274;18.578;2023-05-14T11:27:11;6.88;;;4.57;;
35993;SDS011;22066;54.274;18.578;2023-05-14T11:29:37;9.65;;;4.65;;
35993;SDS011;22066;54.274;18.578;2023-05-14T11:32:04;10.40;;;4.05;;
35993;SDS011;22066;54.274;18.578;2023-05-14T11:34:30;6.63;;;4.28;;
35993;SDS011;22066;54.274;18.578;2023-05-14T11:36:56;10.63;;;4.72;;
35993;SDS011;22066;54.274;18.578;2023-05-14T11:39:22;10.90;;;4.88;;
35993;SDS011;22066;54.274;18.578;2023-05-14T11:41:48;6.75;;;3.95;;
35993;SDS011;22066;54.274;18.578;2023-05-14T11:44:14;8.05;;;4.47;;
35993;SDS011;22066;54.274;18.578;2023-05-14T11:46:52;14.38;;;4.82;;
35993;SDS011;22066;54.274;18.578;2023-05-14T11:49:20;7.47;;;4.32;;
35993;SDS011;22066;54.274;18.578;2023-05-14T11:51:46;6.00;;;3.83;;
35993;SDS011;22066;54.274;18.578;2023-05-14T11:54:12;7.50;;;4.05;;
35993;SDS011;22066;54.274;18.578;2023-05-14T11:56:39;9.10;;;3.78;;
35993;SDS011;22066;54.274;18.578;2023-05-14T11:59:05;8.60;;;4.45;;
35993;SDS011;22066;54.274;18.578;2023-05-14T12:01:37;7.70;;;4.63;;
35993;SDS011;22066;54.274;18.578;2023-05-14T12:04:03;8.90;;;4.82;;
35993;SDS011;22066;54.274;18.578;2023-05-14T12:06:30;10.00;;;4.88;;
35993;SDS011;22066;54.274;18.578;2023-05-14T12:08:56;8.93;;;4.75;;
35993;SDS011;22066;54.274;18.578;2023-05-14T12:11:23;10.32;;;4.72;;
35993;SDS011;22066;54.274;18.578;2023-05-14T12:13:49;6.70;;;4.82;;
35993;SDS011;22066;54.274;18.578;2023-05-14T12:16:15;8.30;;;5.25;;
35993;SDS011;22066;54.274;18.578;2023-05-14T12:18:42;10.80;;;4.88;;
35993;SDS011;22066;54.274;18.578;2023-05-14T12:21:08;8.02;;;4.72;;
35993;SDS011;22066;54.274;18.578;2023-05-14T12:26:02;9.40;;;5.22;;
35993;SDS011;22066;54.274;18.578;2023-05-14T12:28:30;10.02;;;5.85;;
35993;SDS011;22066;54.274;18.578;2023-05-14T12:30:56;18.65;;;7.03;;
35993;SDS011;22066;54.274;18.578;2023-05-14T12:33:23;12.02;;;4.72;;
35993;SDS011;22066;54.274;18.578;2023-05-14T12:35:50;7.72;;;4.75;;
35993;SDS011;22066;54.274;18.578;2023-05-14T12:38:17;9.02;;;4.78;;
35993;SDS011;22066;54.274;18.578;2023-05-14T12:40:44;12.18;;;4.78;;
35993;SDS011;22066;54.274;18.578;2023-05-14T12:43:10;10.30;;;5.22;;
35993;SDS011;22066;54.274;18.578;2023-05-14T12:45:36;11.50;;;4.63;;
35993;SDS011;22066;54.274;18.578;2023-05-14T12:48:02;10.45;;;4.75;;
35993;SDS011;22066;54.274;18.578;2023-05-14T12:50:28;9.88;;;4.25;;
35993;SDS011;22066;54.274;18.578;2023-05-14T12:52:54;10.43;;;5.43;;
35993;SDS011;22066;54.274;18.578;2023-05-14T12:55:20;8.35;;;4.25;;
35993;SDS011;22066;54.274;18.578;2023-05-14T12:57:46;7.88;;;4.50;;
35993;SDS011;22066;54.274;18.578;2023-05-14T13:00:12;12.00;;;5.55;;
35993;SDS011;22066;54.274;18.578;2023-05-14T13:02:38;10.77;;;5.30;;
35993;SDS011;22066;54.274;18.578;2023-05-14T13:05:05;6.43;;;4.32;;
35993;SDS011;22066;54.274;18.578;2023-05-14T13:07:31;11.30;;;5.03;;
35993;SDS011;22066;54.274;18.578;2023-05-14T13:09:57;11.43;;;4.50;;
35993;SDS011;22066;54.274;18.578;2023-05-14T13:12:23;12.13;;;5.90;;
35993;SDS011;22066;54.274;18.578;2023-05-14T13:14:49;19.45;;;5.75;;
35993;SDS011;22066;54.274;18.578;2023-05-14T13:17:15;14.23;;;5.22;;
35993;SDS011;22066;54.274;18.578;2023-05-14T13:19:41;12.77;;;5.75;;
35993;SDS011;22066;54.274;18.578;2023-05-14T13:22:07;12.88;;;4.32;;
35993;SDS011;22066;54.274;18.578;2023-05-14T13:24:33;9.30;;;4.70;;
35993;SDS011;22066;54.274;18.578;2023-05-14T13:26:59;9.40;;;5.13;;
35993;SDS011;22066;54.274;18.578;2023-05-14T13:29:25;11.55;;;5.00;;
35993;SDS011;22066;54.274;18.578;2023-05-14T13:31:53;7.20;;;5.05;;
35993;SDS011;22066;54.274;18.578;2023-05-14T13:34:19;7.70;;;4.68;;
35993;SDS011;22066;54.274;18.578;2023-05-14T13:36:45;9.93;;;5.43;;
35993;SDS011;22066;54.274;18.578;2023-05-14T13:41:39;9.20;;;5.00;;
35993;SDS011;22066;54.274;18.578;2023-05-14T13:44:05;7.35;;;4.43;;
35993;SDS011;22066;54.274;18.578;2023-05-14T13:46:32;7.15;;;5.00;;
35993;SDS011;22066;54.274;18.578;2023-05-14T13:48:58;7.35;;;3.97;;
35993;SDS011;22066;54.274;18.578;2023-05-14T13:51:24;7.30;;;3.42;;
35993;SDS011;22066;54.274;18.578;2023-05-14T13:53:50;7.53;;;3.10;;
35993;SDS011;22066;54.274;18.578;2023-05-14T13:56:16;7.57;;;3.60;;
35993;SDS011;22066;54.274;18.578;2023-05-14T13:58:42;9.50;;;3.50;;
35993;SDS011;22066;54.274;18.578;2023-05-14T14:01:08;7.15;;;3.30;;
35993;SDS011;22066;54.274;18.578;2023-05-14T14:03:34;5.38;;;3.08;;
35993;SDS011;22066;54.274;18.578;2023-05-14T14:06:00;4.20;;;2.72;;
35993;SDS011;22066;54.274;18.578;2023-05-14T14:08:26;6.10;;;4.15;;
35993;SDS011;22066;54.274;18.578;2023-05-14T14:10:52;5.40;;;3.20;;
35993;SDS011;22066;54.274;18.578;2023-05-14T14:13:19;8.20;;;3.20;;
35993;SDS011;22066;54.274;18.578;2023-05-14T14:15:46;17.38;;;3.75;;
35993;SDS011;22066;54.274;18.578;2023-05-14T14:18:12;7.20;;;3.45;;
35993;SDS011;22066;54.274;18.578;2023-05-14T14:20:38;5.15;;;2.95;;
35993;SDS011;22066;54.274;18.578;2023-05-14T14:23:04;9.00;;;2.75;;
35993;SDS011;22066;54.274;18.578;2023-05-14T14:25:30;7.43;;;2.80;;
35993;SDS011;22066;54.274;18.578;2023-05-14T14:27:57;7.28;;;2.97;;
35993;SDS011;22066;54.274;18.578;2023-05-14T14:30:23;6.20;;;2.45;;
35993;SDS011;22066;54.274;18.578;2023-05-14T14:32:49;5.75;;;2.50;;
35993;SDS011;22066;54.274;18.578;2023-05-14T14:35:17;8.98;;;2.53;;
35993;SDS011;22066;54.274;18.578;2023-05-14T14:37:44;6.85;;;2.80;;
35993;SDS011;22066;54.274;18.578;2023-05-14T14:40:17;11.50;;;2.60;;
35993;SDS011;22066;54.274;18.578;2023-05-14T14:42:43;8.85;;;2.55;;
35993;SDS011;22066;54.274;18.578;2023-05-14T14:45:10;5.32;;;2.45;;